sensor_id;sensor_type;location;lat;lon;timestamp;P1;durP1;ratioP1;P2;durP2;ratioP2
11348;SDS011;5729;43.570;27.826;2023-05-16T00:01:15;9.80;;;7.18;;
11348;SDS011;5729;43.570;27.826;2023-05-16T00:03:40;8.05;;;5.90;;
11348;SDS011;5729;43.570;27.826;2023-05-16T00:06:07;11.50;;;6.53;;
11348;SDS011;5729;43.570;27.826;2023-05-16T00:08:33;9.77;;;6.35;;
11348;SDS011;5729;43.570;27.826;2023-05-16T00:10:59;7.55;;;5.72;;
11348;SDS011;5729;43.570;27.826;2023-05-16T00:13:25;7.88;;;6.28;;
11348;SDS011;5729;43.570;27.826;2023-05-16T00:15:51;7.35;;;5.75;;
11348;SDS011;5729;43.570;27.826;2023-05-16T00:18:17;11.50;;;6.60;;
11348;SDS011;5729;43.570;27.826;2023-05-16T00:20:43;9.88;;;5.80;;
11348;SDS011;5729;43.570;27.826;2023-05-16T00:23:10;16.08;;;6.25;;
11348;SDS011;5729;43.570;27.826;2023-05-16T00:25:36;10.02;;;5.80;;
11348;SDS011;5729;43.570;27.826;2023-05-16T00:28:02;11.60;;;6.38;;
11348;SDS011;5729;43.570;27.826;2023-05-16T00:30:27;11.73;;;6.55;;
11348;SDS011;5729;43.570;27.826;2023-05-16T00:32:53;14.23;;;7.35;;
11348;SDS011;5729;43.570;27.826;2023-05-16T00:35:20;12.55;;;7.88;;
11348;SDS011;5729;43.570;27.826;2023-05-16T00:37:45;14.65;;;8.25;;
11348;SDS011;5729;43.570;27.826;2023-05-16T00:40:11;11.88;;;7.00;;
11348;SDS011;5729;43.570;27.826;2023-05-16T00:42:37;8.80;;;6.97;;
11348;SDS011;5729;43.570;27.826;2023-05-16T00:45:03;10.05;;;6.55;;
11348;SDS011;5729;43.570;27.826;2023-05-16T00:47:30;13.38;;;6.30;;
11348;SDS011;5729;43.570;27.826;2023-05-16T00:49:55;9.32;;;5.70;;
11348;SDS011;5729;43.570;27.826;2023-05-16T00:52:21;8.90;;;5.63;;
11348;SDS011;5729;43.570;27.826;2023-05-16T00:54:47;8.73;;;5.75;;
11348;SDS011;5729;43.570;27.826;2023-05-16T00:57:14;10.25;;;5.85;;
11348;SDS011;5729;43.570;27.826;2023-05-16T00:59:40;8.57;;;5.75;;
11348;SDS011;5729;43.570;27.826;2023-05-16T01:02:06;8.82;;;5.57;;
11348;SDS011;5729;43.570;27.826;2023-05-16T01:04:32;10.70;;;5.93;;
11348;SDS011;5729;43.570;27.826;2023-05-16T01:06:58;8.00;;;5.88;;
11348;SDS011;5729;43.570;27.826;2023-05-16T01:09:25;10.80;;;5.72;;
11348;SDS011;5729;43.570;27.826;2023-05-16T01:17:32;11.93;;;6.10;;
11348;SDS011;5729;43.570;27.826;2023-05-16T01:20:18;9.68;;;5.97;;
11348;SDS011;5729;43.570;27.826;2023-05-16T01:28:22;8.32;;;5.78;;
11348;SDS011;5729;43.570;27.826;2023-05-16T01:30:49;10.60;;;6.50;;
11348;SDS011;5729;43.570;27.826;2023-05-16T01:33:15;12.75;;;6.07;;
11348;SDS011;5729;43.570;27.826;2023-05-16T01:36:24;12.15;;;6.90;;
11348;SDS011;5729;43.570;27.826;2023-05-16T01:41:34;9.68;;;7.03;;
11348;SDS011;5729;43.570;27.826;2023-05-16T01:44:07;19.85;;;6.53;;
11348;SDS011;5729;43.570;27.826;2023-05-16T01:46:41;9.88;;;6.25;;
11348;SDS011;5729;43.570;27.826;2023-05-16T01:49:22;14.65;;;6.57;;
11348;SDS011;5729;43.570;27.826;2023-05-16T01:51:53;11.05;;;6.57;;
11348;SDS011;5729;43.570;27.826;2023-05-16T01:54:24;9.65;;;6.18;;
11348;SDS011;5729;43.570;27.826;2023-05-16T01:56:55;8.60;;;5.97;;
11348;SDS011;5729;43.570;27.826;2023-05-16T01:59:21;10.00;;;6.35;;
11348;SDS011;5729;43.570;27.826;2023-05-16T02:01:48;10.65;;;6.95;;
11348;SDS011;5729;43.570;27.826;2023-05-16T02:04:17;10.27;;;6.50;;
11348;SDS011;5729;43.570;27.826;2023-05-16T02:06:43;11.10;;;6.95;;
11348;SDS011;5729;43.570;27.826;2023-05-16T02:09:08;10.75;;;6.60;;
11348;SDS011;5729;43.570;27.826;2023-05-16T02:11:34;11.80;;;7.40;;
11348;SDS011;5729;43.570;27.826;2023-05-16T02:14:00;9.88;;;6.93;;
11348;SDS011;5729;43.570;27.826;2023-05-16T02:16:25;13.45;;;6.60;;
11348;SDS011;5729;43.570;27.826;2023-05-16T02:18:51;9.13;;;6.75;;
11348;SDS011;5729;43.570;27.826;2023-05-16T02:21:16;11.90;;;7.05;;
11348;SDS011;5729;43.570;27.826;2023-05-16T02:23:42;10.13;;;7.35;;
11348;SDS011;5729;43.570;27.826;2023-05-16T02:26:07;14.15;;;8.85;;
11348;SDS011;5729;43.570;27.826;2023-05-16T02:28:33;14.60;;;8.73;;
11348;SDS011;5729;43.570;27.826;2023-05-16T02:30:58;11.52;;;8.13;;
11348;SDS011;5729;43.570;27.826;2023-05-16T02:33:25;15.65;;;8.02;;
11348;SDS011;5729;43.570;27.826;2023-05-16T02:35:51;9.73;;;6.68;;
11348;SDS011;5729;43.570;27.826;2023-05-16T02:38:17;11.85;;;7.70;;
11348;SDS011;5729;43.570;27.826;2023-05-16T02:40:45;14.32;;;7.03;;
11348;SDS011;5729;43.570;27.826;2023-05-16T02:43:11;10.73;;;6.90;;
11348;SDS011;5729;43.570;27.826;2023-05-16T02:45:36;14.15;;;7.70;;
11348;SDS011;5729;43.570;27.826;2023-05-16T02:48:02;9.77;;;7.13;;
11348;SDS011;5729;43.570;27.826;2023-05-16T02:50:28;11.63;;;7.22;;
11348;SDS011;5729;43.570;27.826;2023-05-16T02:52:53;14.15;;;7.63;;
11348;SDS011;5729;43.570;27.826;2023-05-16T02:55:18;13.50;;;7.07;;
11348;SDS011;5729;43.570;27.826;2023-05-16T02:57:44;13.52;;;7.93;;
11348;SDS011;5729;43.570;27.826;2023-05-16T03:00:10;14.85;;;7.97;;
11348;SDS011;5729;43.570;27.826;2023-05-16T03:02:36;13.85;;;7.70;;
11348;SDS011;5729;43.570;27.826;2023-05-16T03:05:02;15.85;;;8.48;;
11348;SDS011;5729;43.570;27.826;2023-05-16T03:07:29;10.13;;;7.60;;
11348;SDS011;5729;43.570;27.826;2023-05-16T03:09:54;15.52;;;8.50;;
11348;SDS011;5729;43.570;27.826;2023-05-16T03:12:20;12.35;;;8.52;;
11348;SDS011;5729;43.570;27.826;2023-05-16T03:14:45;12.07;;;8.90;;
11348;SDS011;5729;43.570;27.826;2023-05-16T03:17:11;12.77;;;9.02;;
11348;SDS011;5729;43.570;27.826;2023-05-16T03:19:36;12.02;;;8.43;;
11348;SDS011;5729;43.570;27.826;2023-05-16T03:22:02;14.57;;;9.35;;
11348;SDS011;5729;43.570;27.826;2023-05-16T03:24:28;14.50;;;9.13;;
11348;SDS011;5729;43.570;27.826;2023-05-16T03:26:53;12.38;;;8.52;;
11348;SDS011;5729;43.570;27.826;2023-05-16T03:29:19;10.85;;;7.78;;
11348;SDS011;5729;43.570;27.826;2023-05-16T03:31:44;14.05;;;8.07;;
11348;SDS011;5729;43.570;27.826;2023-05-16T03:34:10;13.35;;;8.23;;
11348;SDS011;5729;43.570;27.826;2023-05-16T03:36:35;18.35;;;8.50;;
11348;SDS011;5729;43.570;27.826;2023-05-16T03:39:03;11.68;;;7.63;;
11348;SDS011;5729;43.570;27.826;2023-05-16T03:41:28;11.70;;;8.07;;
11348;SDS011;5729;43.570;27.826;2023-05-16T03:43:53;17.08;;;8.02;;
11348;SDS011;5729;43.570;27.826;2023-05-16T03:46:19;10.15;;;7.30;;
11348;SDS011;5729;43.570;27.826;2023-05-16T03:48:44;9.98;;;7.15;;
11348;SDS011;5729;43.570;27.826;2023-05-16T03:51:10;10.95;;;7.35;;
11348;SDS011;5729;43.570;27.826;2023-05-16T03:53:36;12.95;;;7.10;;
11348;SDS011;5729;43.570;27.826;2023-05-16T03:56:01;10.48;;;6.55;;
11348;SDS011;5729;43.570;27.826;2023-05-16T03:58:28;12.57;;;6.72;;
11348;SDS011;5729;43.570;27.826;2023-05-16T04:00:53;9.30;;;6.55;;
11348;SDS011;5729;43.570;27.826;2023-05-16T04:03:19;11.30;;;6.38;;
11348;SDS011;5729;43.570;27.826;2023-05-16T04:05:44;10.73;;;6.25;;
11348;SDS011;5729;43.570;27.826;2023-05-16T04:08:10;9.07;;;6.10;;
11348;SDS011;5729;43.570;27.826;2023-05-16T04:10:35;8.20;;;6.03;;
11348;SDS011;5729;43.570;27.826;2023-05-16T04:13:01;9.35;;;6.50;;
11348;SDS011;5729;43.570;27.826;2023-05-16T04:15:26;36.88;;;8.63;;
11348;SDS011;5729;43.570;27.826;2023-05-16T04:17:52;41.33;;;8.02;;
11348;SDS011;5729;43.570;27.826;2023-05-16T04:20:17;20.10;;;6.93;;
11348;SDS011;5729;43.570;27.826;2023-05-16T04:22:43;15.40;;;7.22;;
11348;SDS011;5729;43.570;27.826;2023-05-16T04:25:08;8.95;;;6.70;;
11348;SDS011;5729;43.570;27.826;2023-05-16T04:27:35;10.90;;;6.05;;
11348;SDS011;5729;43.570;27.826;2023-05-16T04:30:00;11.32;;;6.35;;
11348;SDS011;5729;43.570;27.826;2023-05-16T04:32:26;8.45;;;5.95;;
11348;SDS011;5729;43.570;27.826;2023-05-16T04:34:52;9.93;;;6.15;;
11348;SDS011;5729;43.570;27.826;2023-05-16T04:37:18;11.57;;;5.90;;
11348;SDS011;5729;43.570;27.826;2023-05-16T04:39:44;10.93;;;6.75;;
11348;SDS011;5729;43.570;27.826;2023-05-16T04:42:10;7.43;;;6.30;;
11348;SDS011;5729;43.570;27.826;2023-05-16T04:44:36;11.75;;;6.57;;
11348;SDS011;5729;43.570;27.826;2023-05-16T04:47:01;14.05;;;6.32;;
11348;SDS011;5729;43.570;27.826;2023-05-16T04:49:27;9.30;;;5.65;;
11348;SDS011;5729;43.570;27.826;2023-05-16T04:51:52;9.18;;;5.78;;
11348;SDS011;5729;43.570;27.826;2023-05-16T04:54:18;9.63;;;4.93;;
11348;SDS011;5729;43.570;27.826;2023-05-16T04:56:43;9.02;;;5.85;;
11348;SDS011;5729;43.570;27.826;2023-05-16T04:59:09;7.15;;;5.03;;
11348;SDS011;5729;43.570;27.826;2023-05-16T05:01:34;8.43;;;5.25;;
11348;SDS011;5729;43.570;27.826;2023-05-16T05:04:00;13.52;;;5.40;;
11348;SDS011;5729;43.570;27.826;2023-05-16T05:06:27;9.95;;;5.28;;
11348;SDS011;5729;43.570;27.826;2023-05-16T05:08:52;11.57;;;5.35;;
11348;SDS011;5729;43.570;27.826;2023-05-16T05:11:18;12.50;;;5.78;;
11348;SDS011;5729;43.570;27.826;2023-05-16T05:13:44;10.15;;;5.25;;
11348;SDS011;5729;43.570;27.826;2023-05-16T05:16:09;13.73;;;4.57;;
11348;SDS011;5729;43.570;27.826;2023-05-16T05:18:35;10.45;;;4.45;;
11348;SDS011;5729;43.570;27.826;2023-05-16T05:21:00;10.02;;;5.22;;
11348;SDS011;5729;43.570;27.826;2023-05-16T05:23:26;6.70;;;4.63;;
11348;SDS011;5729;43.570;27.826;2023-05-16T05:25:51;8.88;;;4.75;;
11348;SDS011;5729;43.570;27.826;2023-05-16T05:28:17;12.85;;;5.32;;
11348;SDS011;5729;43.570;27.826;2023-05-16T05:30:42;8.13;;;5.03;;
11348;SDS011;5729;43.570;27.826;2023-05-16T05:33:09;10.20;;;4.57;;
11348;SDS011;5729;43.570;27.826;2023-05-16T05:35:35;8.18;;;5.00;;
11348;SDS011;5729;43.570;27.826;2023-05-16T05:38:01;11.02;;;4.88;;
11348;SDS011;5729;43.570;27.826;2023-05-16T05:40:27;9.30;;;4.43;;
11348;SDS011;5729;43.570;27.826;2023-05-16T05:42:52;8.48;;;5.20;;
11348;SDS011;5729;43.570;27.826;2023-05-16T05:45:17;6.85;;;4.32;;
11348;SDS011;5729;43.570;27.826;2023-05-16T05:47:43;7.63;;;4.70;;
11348;SDS011;5729;43.570;27.826;2023-05-16T05:50:08;7.10;;;4.10;;
11348;SDS011;5729;43.570;27.826;2023-05-16T05:52:35;6.65;;;4.10;;
11348;SDS011;5729;43.570;27.826;2023-05-16T05:55:01;6.40;;;4.55;;
11348;SDS011;5729;43.570;27.826;2023-05-16T05:57:27;12.00;;;4.70;;
11348;SDS011;5729;43.570;27.826;2023-05-16T05:59:52;10.40;;;4.47;;
11348;SDS011;5729;43.570;27.826;2023-05-16T06:02:18;6.53;;;4.50;;
11348;SDS011;5729;43.570;27.826;2023-05-16T06:04:44;8.77;;;4.50;;
11348;SDS011;5729;43.570;27.826;2023-05-16T06:07:10;5.60;;;4.03;;
11348;SDS011;5729;43.570;27.826;2023-05-16T06:09:35;11.57;;;4.10;;
11348;SDS011;5729;43.570;27.826;2023-05-16T06:12:01;6.65;;;3.92;;
11348;SDS011;5729;43.570;27.826;2023-05-16T06:14:28;4.00;;;3.53;;
11348;SDS011;5729;43.570;27.826;2023-05-16T06:16:53;5.70;;;3.55;;
11348;SDS011;5729;43.570;27.826;2023-05-16T06:19:19;7.72;;;4.22;;
11348;SDS011;5729;43.570;27.826;2023-05-16T06:21:44;9.38;;;4.03;;
11348;SDS011;5729;43.570;27.826;2023-05-16T06:24:10;9.88;;;4.72;;
11348;SDS011;5729;43.570;27.826;2023-05-16T06:26:36;8.55;;;3.50;;
11348;SDS011;5729;43.570;27.826;2023-05-16T06:29:01;7.38;;;3.40;;
11348;SDS011;5729;43.570;27.826;2023-05-16T06:31:27;8.95;;;4.22;;
11348;SDS011;5729;43.570;27.826;2023-05-16T06:33:52;8.18;;;4.05;;
11348;SDS011;5729;43.570;27.826;2023-05-16T06:36:18;9.20;;;4.43;;
11348;SDS011;5729;43.570;27.826;2023-05-16T06:38:43;7.25;;;3.63;;
11348;SDS011;5729;43.570;27.826;2023-05-16T06:41:09;8.32;;;3.83;;
11348;SDS011;5729;43.570;27.826;2023-05-16T06:43:34;5.28;;;3.15;;
11348;SDS011;5729;43.570;27.826;2023-05-16T06:46:00;5.85;;;3.67;;
11348;SDS011;5729;43.570;27.826;2023-05-16T06:48:25;6.05;;;3.75;;
11348;SDS011;5729;43.570;27.826;2023-05-16T06:50:51;11.38;;;4.38;;
11348;SDS011;5729;43.570;27.826;2023-05-16T06:53:17;7.80;;;3.78;;
11348;SDS011;5729;43.570;27.826;2023-05-16T06:55:43;7.10;;;4.18;;
11348;SDS011;5729;43.570;27.826;2023-05-16T06:58:09;7.47;;;4.22;;
11348;SDS011;5729;43.570;27.826;2023-05-16T07:00:34;5.25;;;3.85;;
11348;SDS011;5729;43.570;27.826;2023-05-16T07:03:00;5.93;;;3.47;;
11348;SDS011;5729;43.570;27.826;2023-05-16T07:05:27;5.95;;;3.42;;
11348;SDS011;5729;43.570;27.826;2023-05-16T07:07:53;7.47;;;4.03;;
11348;SDS011;5729;43.570;27.826;2023-05-16T07:10:18;6.70;;;3.58;;
11348;SDS011;5729;43.570;27.826;2023-05-16T07:12:44;5.47;;;3.55;;
11348;SDS011;5729;43.570;27.826;2023-05-16T07:15:10;8.05;;;3.42;;
11348;SDS011;5729;43.570;27.826;2023-05-16T07:17:36;10.55;;;4.13;;
11348;SDS011;5729;43.570;27.826;2023-05-16T07:20:01;9.80;;;3.60;;
11348;SDS011;5729;43.570;27.826;2023-05-16T07:22:27;8.63;;;3.33;;
11348;SDS011;5729;43.570;27.826;2023-05-16T07:24:52;5.32;;;3.08;;
11348;SDS011;5729;43.570;27.826;2023-05-16T07:27:21;7.25;;;3.00;;
11348;SDS011;5729;43.570;27.826;2023-05-16T07:29:47;7.95;;;3.42;;
11348;SDS011;5729;43.570;27.826;2023-05-16T07:32:12;7.43;;;2.97;;
11348;SDS011;5729;43.570;27.826;2023-05-16T07:34:38;10.10;;;3.08;;
11348;SDS011;5729;43.570;27.826;2023-05-16T07:37:03;5.57;;;3.15;;
11348;SDS011;5729;43.570;27.826;2023-05-16T07:39:29;7.60;;;2.97;;
11348;SDS011;5729;43.570;27.826;2023-05-16T07:41:54;5.13;;;3.20;;
11348;SDS011;5729;43.570;27.826;2023-05-16T07:44:20;6.10;;;3.38;;
11348;SDS011;5729;43.570;27.826;2023-05-16T07:46:46;3.22;;;2.63;;
11348;SDS011;5729;43.570;27.826;2023-05-16T07:49:11;3.75;;;2.58;;
11348;SDS011;5729;43.570;27.826;2023-05-16T07:51:37;10.82;;;2.78;;
11348;SDS011;5729;43.570;27.826;2023-05-16T07:54:02;8.43;;;3.50;;
11348;SDS011;5729;43.570;27.826;2023-05-16T07:56:28;15.15;;;3.78;;
11348;SDS011;5729;43.570;27.826;2023-05-16T07:58:53;5.28;;;2.95;;
11348;SDS011;5729;43.570;27.826;2023-05-16T08:01:19;5.43;;;2.88;;
11348;SDS011;5729;43.570;27.826;2023-05-16T08:03:45;6.15;;;3.22;;
11348;SDS011;5729;43.570;27.826;2023-05-16T08:06:10;5.20;;;2.88;;
11348;SDS011;5729;43.570;27.826;2023-05-16T08:08:36;7.70;;;2.80;;
11348;SDS011;5729;43.570;27.826;2023-05-16T08:11:02;10.35;;;3.38;;
11348;SDS011;5729;43.570;27.826;2023-05-16T08:13:27;4.93;;;2.70;;
11348;SDS011;5729;43.570;27.826;2023-05-16T08:15:53;6.97;;;2.85;;
11348;SDS011;5729;43.570;27.826;2023-05-16T08:18:18;4.03;;;2.75;;
11348;SDS011;5729;43.570;27.826;2023-05-16T08:20:43;15.38;;;3.33;;
11348;SDS011;5729;43.570;27.826;2023-05-16T08:23:09;8.57;;;3.30;;
11348;SDS011;5729;43.570;27.826;2023-05-16T08:25:34;6.72;;;2.75;;
11348;SDS011;5729;43.570;27.826;2023-05-16T08:28:00;5.28;;;3.05;;
11348;SDS011;5729;43.570;27.826;2023-05-16T08:30:26;5.97;;;2.85;;
11348;SDS011;5729;43.570;27.826;2023-05-16T08:32:52;3.80;;;2.28;;
11348;SDS011;5729;43.570;27.826;2023-05-16T08:35:17;7.35;;;2.75;;
11348;SDS011;5729;43.570;27.826;2023-05-16T08:37:43;3.80;;;2.38;;
11348;SDS011;5729;43.570;27.826;2023-05-16T08:40:08;4.50;;;2.55;;
11348;SDS011;5729;43.570;27.826;2023-05-16T08:42:35;4.15;;;2.47;;
11348;SDS011;5729;43.570;27.826;2023-05-16T08:45:01;4.70;;;2.30;;
11348;SDS011;5729;43.570;27.826;2023-05-16T08:47:28;3.63;;;2.30;;
11348;SDS011;5729;43.570;27.826;2023-05-16T08:49:56;8.43;;;2.50;;
11348;SDS011;5729;43.570;27.826;2023-05-16T08:52:25;8.23;;;2.92;;
11348;SDS011;5729;43.570;27.826;2023-05-16T08:54:58;7.35;;;2.70;;
11348;SDS011;5729;43.570;27.826;2023-05-16T08:57:29;4.40;;;2.67;;
11348;SDS011;5729;43.570;27.826;2023-05-16T08:59:56;4.32;;;2.50;;
11348;SDS011;5729;43.570;27.826;2023-05-16T09:02:22;8.85;;;2.72;;
11348;SDS011;5729;43.570;27.826;2023-05-16T09:04:48;5.47;;;2.47;;
11348;SDS011;5729;43.570;27.826;2023-05-16T09:07:14;7.97;;;2.80;;
11348;SDS011;5729;43.570;27.826;2023-05-16T09:09:40;5.10;;;2.70;;
11348;SDS011;5729;43.570;27.826;2023-05-16T09:12:06;5.88;;;3.00;;
11348;SDS011;5729;43.570;27.826;2023-05-16T09:14:32;6.20;;;2.92;;
11348;SDS011;5729;43.570;27.826;2023-05-16T09:17:07;4.13;;;2.97;;
11348;SDS011;5729;43.570;27.826;2023-05-16T09:19:42;5.15;;;2.92;;
11348;SDS011;5729;43.570;27.826;2023-05-16T09:22:11;9.88;;;3.00;;
11348;SDS011;5729;43.570;27.826;2023-05-16T09:24:38;6.13;;;2.97;;
11348;SDS011;5729;43.570;27.826;2023-05-16T09:27:12;6.25;;;3.10;;
11348;SDS011;5729;43.570;27.826;2023-05-16T09:29:39;3.63;;;2.45;;
11348;SDS011;5729;43.570;27.826;2023-05-16T09:32:14;5.75;;;2.92;;
11348;SDS011;5729;43.570;27.826;2023-05-16T09:34:44;4.97;;;2.50;;
11348;SDS011;5729;43.570;27.826;2023-05-16T09:37:13;5.50;;;2.50;;
11348;SDS011;5729;43.570;27.826;2023-05-16T09:42:14;5.28;;;2.40;;
11348;SDS011;5729;43.570;27.826;2023-05-16T09:44:45;3.20;;;2.15;;
11348;SDS011;5729;43.570;27.826;2023-05-16T09:47:15;6.45;;;2.45;;
11348;SDS011;5729;43.570;27.826;2023-05-16T09:49:42;4.20;;;2.20;;
11348;SDS011;5729;43.570;27.826;2023-05-16T09:52:09;5.30;;;2.40;;
11348;SDS011;5729;43.570;27.826;2023-05-16T09:54:34;3.95;;;2.38;;
11348;SDS011;5729;43.570;27.826;2023-05-16T09:57:00;2.28;;;2.00;;
11348;SDS011;5729;43.570;27.826;2023-05-16T09:59:29;10.10;;;2.45;;
11348;SDS011;5729;43.570;27.826;2023-05-16T10:01:56;3.42;;;2.28;;
11348;SDS011;5729;43.570;27.826;2023-05-16T10:04:25;6.80;;;2.67;;
11348;SDS011;5729;43.570;27.826;2023-05-16T10:06:52;4.68;;;2.05;;
11348;SDS011;5729;43.570;27.826;2023-05-16T10:09:21;4.05;;;2.78;;
11348;SDS011;5729;43.570;27.826;2023-05-16T10:11:47;6.82;;;5.38;;
11348;SDS011;5729;43.570;27.826;2023-05-16T10:14:18;5.80;;;2.65;;
11348;SDS011;5729;43.570;27.826;2023-05-16T10:16:46;3.95;;;2.22;;
11348;SDS011;5729;43.570;27.826;2023-05-16T10:19:14;4.18;;;2.45;;
11348;SDS011;5729;43.570;27.826;2023-05-16T10:21:41;3.60;;;2.53;;
11348;SDS011;5729;43.570;27.826;2023-05-16T10:24:12;5.25;;;2.65;;
11348;SDS011;5729;43.570;27.826;2023-05-16T10:26:42;4.50;;;2.42;;
11348;SDS011;5729;43.570;27.826;2023-05-16T10:29:07;2.90;;;2.20;;
11348;SDS011;5729;43.570;27.826;2023-05-16T10:31:34;6.97;;;3.05;;
11348;SDS011;5729;43.570;27.826;2023-05-16T10:34:00;4.82;;;2.60;;
11348;SDS011;5729;43.570;27.826;2023-05-16T10:36:26;2.97;;;2.53;;
11348;SDS011;5729;43.570;27.826;2023-05-16T10:38:52;6.03;;;2.30;;
11348;SDS011;5729;43.570;27.826;2023-05-16T10:41:18;5.18;;;3.78;;
11348;SDS011;5729;43.570;27.826;2023-05-16T10:43:54;4.18;;;3.17;;
11348;SDS011;5729;43.570;27.826;2023-05-16T10:46:21;6.97;;;2.95;;
11348;SDS011;5729;43.570;27.826;2023-05-16T10:48:48;4.88;;;2.20;;
11348;SDS011;5729;43.570;27.826;2023-05-16T10:53:51;10.55;;;2.80;;
11348;SDS011;5729;43.570;27.826;2023-05-16T10:56:21;6.95;;;3.38;;
11348;SDS011;5729;43.570;27.826;2023-05-16T10:58:48;5.82;;;1.95;;
11348;SDS011;5729;43.570;27.826;2023-05-16T11:01:27;5.22;;;1.90;;
11348;SDS011;5729;43.570;27.826;2023-05-16T11:16:49;3.53;;;2.63;;
11348;SDS011;5729;43.570;27.826;2023-05-16T11:19:27;6.18;;;2.45;;
11348;SDS011;5729;43.570;27.826;2023-05-16T11:22:04;5.07;;;2.63;;
11348;SDS011;5729;43.570;27.826;2023-05-16T11:24:32;5.25;;;3.50;;
11348;SDS011;5729;43.570;27.826;2023-05-16T11:26:59;5.30;;;2.25;;
11348;SDS011;5729;43.570;27.826;2023-05-16T11:29:34;8.70;;;5.20;;
11348;SDS011;5729;43.570;27.826;2023-05-16T11:32:02;5.50;;;3.50;;
11348;SDS011;5729;43.570;27.826;2023-05-16T11:34:30;5.03;;;3.00;;
11348;SDS011;5729;43.570;27.826;2023-05-16T11:36:56;4.38;;;2.65;;
11348;SDS011;5729;43.570;27.826;2023-05-16T11:39:24;5.05;;;3.05;;
11348;SDS011;5729;43.570;27.826;2023-05-16T11:41:50;4.32;;;1.95;;
11348;SDS011;5729;43.570;27.826;2023-05-16T11:44:16;6.13;;;2.35;;
11348;SDS011;5729;43.570;27.826;2023-05-16T11:46:41;6.20;;;2.10;;
11348;SDS011;5729;43.570;27.826;2023-05-16T11:49:10;9.05;;;3.53;;
11348;SDS011;5729;43.570;27.826;2023-05-16T11:51:41;3.92;;;2.30;;
11348;SDS011;5729;43.570;27.826;2023-05-16T11:54:10;8.90;;;2.60;;
11348;SDS011;5729;43.570;27.826;2023-05-16T11:56:37;4.43;;;2.55;;
11348;SDS011;5729;43.570;27.826;2023-05-16T11:59:04;7.85;;;4.22;;
11348;SDS011;5729;43.570;27.826;2023-05-16T12:01:48;9.93;;;2.70;;
11348;SDS011;5729;43.570;27.826;2023-05-16T12:04:14;6.18;;;2.50;;
11348;SDS011;5729;43.570;27.826;2023-05-16T12:06:41;5.70;;;2.45;;
11348;SDS011;5729;43.570;27.826;2023-05-16T12:09:12;6.15;;;2.65;;
11348;SDS011;5729;43.570;27.826;2023-05-16T12:11:39;5.45;;;3.38;;
11348;SDS011;5729;43.570;27.826;2023-05-16T12:14:07;9.50;;;3.15;;
11348;SDS011;5729;43.570;27.826;2023-05-16T12:16:34;6.57;;;2.60;;
11348;SDS011;5729;43.570;27.826;2023-05-16T12:19:01;5.10;;;2.90;;
11348;SDS011;5729;43.570;27.826;2023-05-16T12:21:29;8.88;;;3.58;;
11348;SDS011;5729;43.570;27.826;2023-05-16T12:23:55;9.02;;;4.07;;
11348;SDS011;5729;43.570;27.826;2023-05-16T12:26:25;30.77;;;20.05;;
11348;SDS011;5729;43.570;27.826;2023-05-16T12:28:56;52.88;;;35.90;;
11348;SDS011;5729;43.570;27.826;2023-05-16T12:31:24;16.77;;;10.63;;
11348;SDS011;5729;43.570;27.826;2023-05-16T12:33:53;19.15;;;13.27;;
11348;SDS011;5729;43.570;27.826;2023-05-16T12:36:19;11.93;;;4.75;;
11348;SDS011;5729;43.570;27.826;2023-05-16T12:38:46;6.93;;;2.58;;
11348;SDS011;5729;43.570;27.826;2023-05-16T12:41:16;4.25;;;2.75;;
11348;SDS011;5729;43.570;27.826;2023-05-16T12:43:43;9.88;;;3.08;;
11348;SDS011;5729;43.570;27.826;2023-05-16T12:46:09;9.27;;;5.30;;
11348;SDS011;5729;43.570;27.826;2023-05-16T12:48:38;5.40;;;4.47;;
11348;SDS011;5729;43.570;27.826;2023-05-16T12:51:12;5.10;;;2.28;;
11348;SDS011;5729;43.570;27.826;2023-05-16T12:53:42;5.38;;;3.08;;
11348;SDS011;5729;43.570;27.826;2023-05-16T12:56:10;7.63;;;4.05;;
11348;SDS011;5729;43.570;27.826;2023-05-16T12:58:37;6.22;;;3.88;;
11348;SDS011;5729;43.570;27.826;2023-05-16T13:01:03;5.90;;;2.80;;
11348;SDS011;5729;43.570;27.826;2023-05-16T13:03:30;3.95;;;2.22;;
11348;SDS011;5729;43.570;27.826;2023-05-16T13:05:56;3.47;;;2.40;;
11348;SDS011;5729;43.570;27.826;2023-05-16T13:08:22;5.65;;;2.50;;
11348;SDS011;5729;43.570;27.826;2023-05-16T13:10:48;5.25;;;3.03;;
11348;SDS011;5729;43.570;27.826;2023-05-16T13:13:13;6.03;;;2.70;;
11348;SDS011;5729;43.570;27.826;2023-05-16T13:15:39;5.63;;;2.95;;
11348;SDS011;5729;43.570;27.826;2023-05-16T13:18:06;4.72;;;3.22;;
11348;SDS011;5729;43.570;27.826;2023-05-16T13:20:32;4.25;;;3.00;;
11348;SDS011;5729;43.570;27.826;2023-05-16T13:22:57;5.15;;;2.85;;
11348;SDS011;5729;43.570;27.826;2023-05-16T13:25:23;9.32;;;2.85;;
11348;SDS011;5729;43.570;27.826;2023-05-16T13:27:48;7.18;;;2.67;;
11348;SDS011;5729;43.570;27.826;2023-05-16T13:30:14;2.75;;;2.33;;
11348;SDS011;5729;43.570;27.826;2023-05-16T13:32:40;5.68;;;2.22;;
11348;SDS011;5729;43.570;27.826;2023-05-16T13:35:06;7.05;;;2.42;;
11348;SDS011;5729;43.570;27.826;2023-05-16T13:37:32;7.35;;;2.50;;
11348;SDS011;5729;43.570;27.826;2023-05-16T13:39:57;6.32;;;2.97;;
11348;SDS011;5729;43.570;27.826;2023-05-16T13:42:23;5.43;;;2.08;;
11348;SDS011;5729;43.570;27.826;2023-05-16T13:44:48;6.88;;;1.98;;
11348;SDS011;5729;43.570;27.826;2023-05-16T13:47:14;2.45;;;1.65;;
11348;SDS011;5729;43.570;27.826;2023-05-16T13:49:40;2.08;;;1.85;;
11348;SDS011;5729;43.570;27.826;2023-05-16T13:52:05;3.47;;;2.05;;
11348;SDS011;5729;43.570;27.826;2023-05-16T13:54:31;6.35;;;2.22;;
11348;SDS011;5729;43.570;27.826;2023-05-16T13:56:56;7.88;;;2.20;;
11348;SDS011;5729;43.570;27.826;2023-05-16T13:59:22;6.22;;;2.03;;
11348;SDS011;5729;43.570;27.826;2023-05-16T14:01:47;14.82;;;2.65;;
11348;SDS011;5729;43.570;27.826;2023-05-16T14:04:13;6.50;;;2.25;;
11348;SDS011;5729;43.570;27.826;2023-05-16T14:06:38;5.72;;;2.40;;
11348;SDS011;5729;43.570;27.826;2023-05-16T14:09:04;4.40;;;2.15;;
11348;SDS011;5729;43.570;27.826;2023-05-16T14:11:30;4.80;;;2.20;;
11348;SDS011;5729;43.570;27.826;2023-05-16T14:13:56;7.45;;;2.40;;
11348;SDS011;5729;43.570;27.826;2023-05-16T14:16:22;7.07;;;2.28;;
11348;SDS011;5729;43.570;27.826;2023-05-16T14:18:47;5.20;;;2.75;;
11348;SDS011;5729;43.570;27.826;2023-05-16T14:21:13;5.68;;;2.20;;
11348;SDS011;5729;43.570;27.826;2023-05-16T14:23:38;7.40;;;2.22;;
11348;SDS011;5729;43.570;27.826;2023-05-16T14:26:04;5.45;;;2.40;;
11348;SDS011;5729;43.570;27.826;2023-05-16T14:28:29;8.13;;;2.55;;
11348;SDS011;5729;43.570;27.826;2023-05-16T14:30:57;5.85;;;2.30;;
11348;SDS011;5729;43.570;27.826;2023-05-16T14:33:23;2.75;;;2.10;;
11348;SDS011;5729;43.570;27.826;2023-05-16T14:35:48;7.13;;;2.50;;
11348;SDS011;5729;43.570;27.826;2023-05-16T14:38:14;3.47;;;2.08;;
11348;SDS011;5729;43.570;27.826;2023-05-16T14:40:40;5.70;;;2.63;;
11348;SDS011;5729;43.570;27.826;2023-05-16T14:43:06;8.65;;;2.10;;
11348;SDS011;5729;43.570;27.826;2023-05-16T14:45:31;7.45;;;2.40;;
11348;SDS011;5729;43.570;27.826;2023-05-16T14:47:57;5.70;;;2.05;;
11348;SDS011;5729;43.570;27.826;2023-05-16T14:50:23;3.60;;;2.45;;
11348;SDS011;5729;43.570;27.826;2023-05-16T14:52:48;4.18;;;2.45;;
11348;SDS011;5729;43.570;27.826;2023-05-16T14:55:14;4.43;;;2.30;;
11348;SDS011;5729;43.570;27.826;2023-05-16T14:57:39;3.65;;;2.20;;
11348;SDS011;5729;43.570;27.826;2023-05-16T15:00:05;3.90;;;2.38;;
11348;SDS011;5729;43.570;27.826;2023-05-16T15:02:31;8.50;;;2.90;;
11348;SDS011;5729;43.570;27.826;2023-05-16T15:04:57;9.80;;;3.22;;
11348;SDS011;5729;43.570;27.826;2023-05-16T15:07:23;5.78;;;2.30;;
11348;SDS011;5729;43.570;27.826;2023-05-16T15:09:49;5.55;;;2.75;;
11348;SDS011;5729;43.570;27.826;2023-05-16T15:12:14;6.82;;;2.67;;